Mimmo Ievoli — ICLN — position and weather

sailwx.info

Track history (hours):
 
Tides and Currents Weather Stations Pressure Air Temp Water Temp Dewpoint Dewpoint Depression Visibility Wind Speed Wind Dir Waves Ship Positions

Mimmo Ievoli

Last reported at 2017-Nov-18 07:16 UTC. Time now 2017-Nov-20 23:10 UTC.
Position N 37°46' E 016°03'.

Length 125 m; draft 6 m.

Type: Ship. MMSI: 247253200.

Date/timePositionNaut miles runAvg speedWind from/ knotsBaromVisibWave heightAir tempDewpointWater temp
2017-Nov-18 07:16N 37°46' E 016°03'412.8
2017-Nov-18 07:00N 37°43' E 016°01'712.9
2017-Nov-18 06:27N 37°37' E 015°57'612.7
2017-Nov-18 05:59N 37°32' E 015°53'8011.1
2017-Nov-17 22:44N 36°38' E 014°39'313.9
2017-Nov-17 22:30N 36°38' E 014°35'714.2
2017-Nov-17 22:00N 36°41' E 014°27'713.6
2017-Nov-17 21:30N 36°44' E 014°19'713.5
2017-Nov-17 21:00N 36°47' E 014°12'713.8
2017-Nov-17 20:30N 36°51' E 014°04'713.8
2017-Nov-17 20:00N 36°54' E 013°57'713.8
2017-Nov-17 19:30N 36°57' E 013°49'713.9
2017-Nov-17 19:00N 37°00' E 013°41'  
2017-Nov-11 22:12N 36°18' E 013°29'1013.7
2017-Nov-11 21:30N 36°18' E 013°41'713.7
2017-Nov-11 21:00N 36°18' E 013°50'713.7
2017-Nov-11 20:30N 36°18' E 013°58'713.6
2017-Nov-11 20:00N 36°18' E 014°07'713.4
2017-Nov-11 19:30N 36°19' E 014°15'713.3
2017-Nov-11 19:00N 36°19' E 014°23'713.6
2017-Nov-11 18:30N 36°18' E 014°32'713.5
2017-Nov-11 18:00N 36°18' E 014°40'713.2
2017-Nov-11 17:30N 36°19' E 014°48'713.6
2017-Nov-11 17:00N 36°19' E 014°57'812.6
2017-Nov-11 16:20N 36°26' E 015°03'413.1
2017-Nov-11 16:00N 36°29' E 015°06'7312.0
2017-Nov-11 09:58N 37°30' E 015°55'511.7
2017-Nov-11 09:30N 37°35' E 015°59'611.5
2017-Nov-11 09:00N 37°40' E 016°02'711.6
2017-Nov-11 08:24N 37°46' E 016°07'410 9.9
2017-Nov-09 15:09N 44°14' E 013°11'213.5
2017-Nov-09 15:00N 44°15' E 013°09'2113.2
2017-Nov-09 13:27N 44°26' E 012°44'613.5
2017-Nov-09 13:00N 44°27' E 012°36'21 0.8
2017-Nov-08 09:17N 44°18' E 013°03'411.4
2017-Nov-08 08:57N 44°18' E 013°08'511.1
2017-Nov-08 08:29N 44°18' E 013°15'  
Track history (hours):
 
Tides and Currents Weather Stations Pressure Air Temp Water Temp Dewpoint Dewpoint Depression Visibility Wind Speed Wind Dir Waves Ship Positions

Mimmo Ievoli

Last reported at 2017-Nov-18 07:16 UTC. Time now 2017-Nov-20 23:10 UTC.
Position N 37°46' E 016°03'.

Length 125 m; draft 6 m.

Type: Ship. MMSI: 247253200.

Date/timePositionNaut miles runAvg speedWind from/ knotsBaromVisibWave heightAir tempDewpointWater temp
2017-Nov-18 07:16N 37°46' E 016°03'412.8
2017-Nov-18 07:00N 37°43' E 016°01'712.9
2017-Nov-18 06:27N 37°37' E 015°57'612.7
2017-Nov-18 05:59N 37°32' E 015°53'8011.1
2017-Nov-17 22:44N 36°38' E 014°39'313.9
2017-Nov-17 22:30N 36°38' E 014°35'714.2
2017-Nov-17 22:00N 36°41' E 014°27'713.6
2017-Nov-17 21:30N 36°44' E 014°19'713.5
2017-Nov-17 21:00N 36°47' E 014°12'713.8
2017-Nov-17 20:30N 36°51' E 014°04'713.8
2017-Nov-17 20:00N 36°54' E 013°57'713.8
2017-Nov-17 19:30N 36°57' E 013°49'713.9
2017-Nov-17 19:00N 37°00' E 013°41'  
2017-Nov-11 22:12N 36°18' E 013°29'1013.7
2017-Nov-11 21:30N 36°18' E 013°41'713.7
2017-Nov-11 21:00N 36°18' E 013°50'713.7
2017-Nov-11 20:30N 36°18' E 013°58'713.6
2017-Nov-11 20:00N 36°18' E 014°07'713.4
2017-Nov-11 19:30N 36°19' E 014°15'713.3
2017-Nov-11 19:00N 36°19' E 014°23'713.6
2017-Nov-11 18:30N 36°18' E 014°32'713.5
2017-Nov-11 18:00N 36°18' E 014°40'713.2
2017-Nov-11 17:30N 36°19' E 014°48'713.6
2017-Nov-11 17:00N 36°19' E 014°57'812.6
2017-Nov-11 16:20N 36°26' E 015°03'413.1
2017-Nov-11 16:00N 36°29' E 015°06'7312.0
2017-Nov-11 09:58N 37°30' E 015°55'511.7
2017-Nov-11 09:30N 37°35' E 015°59'611.5
2017-Nov-11 09:00N 37°40' E 016°02'711.6
2017-Nov-11 08:24N 37°46' E 016°07'410 9.9
2017-Nov-09 15:09N 44°14' E 013°11'213.5
2017-Nov-09 15:00N 44°15' E 013°09'2113.2
2017-Nov-09 13:27N 44°26' E 012°44'613.5
2017-Nov-09 13:00N 44°27' E 012°36'21 0.8
2017-Nov-08 09:17N 44°18' E 013°03'411.4
2017-Nov-08 08:57N 44°18' E 013°08'511.1
2017-Nov-08 08:29N 44°18' E 013°15'  

Dump ship's entire track history